Ocean Drive — ZGCA7 — position and weather

sailwx.info

Track history (hours):
 
Tides and Currents Weather Stations Pressure Air Temp Water Temp Dewpoint Dewpoint Depression Visibility Wind Speed Wind Dir Waves Ship Positions

Ocean Drive

Last reported at 2014-Aug-21 15:33 UTC. Time now 2014-Aug-21 16:00 UTC.
Position N 41°00' W 072°11'.

; draft 2 m.

MMSI: 319901000.

Date/timePositionNaut miles runAvg speedWind from/ knotsBaromVisibWave heightAir tempDewpointWater temp
2014-Aug-21 15:33N 41°00' W 072°11'0 0.0
2014-Aug-21 14:33N 41°00' W 072°11'0 0.0
2014-Aug-21 13:33N 41°00' W 072°11'0 0.0
2014-Aug-21 12:30N 41°00' W 072°11'0 0.0
2014-Aug-21 11:30N 41°00' W 072°11'0 0.0
2014-Aug-21 10:33N 41°00' W 072°11'0 0.0
2014-Aug-21 09:33N 41°00' W 072°11'0 0.0
2014-Aug-21 08:33N 41°00' W 072°11'0 0.0
2014-Aug-21 07:30N 41°00' W 072°11'0 0.0
2014-Aug-21 06:33N 41°00' W 072°11'0 0.0
2014-Aug-21 05:33N 41°00' W 072°11'0 0.0
2014-Aug-21 04:33N 41°00' W 072°11'0 0.0
2014-Aug-21 03:30N 41°00' W 072°11'0 0.0
2014-Aug-21 02:33N 41°00' W 072°11'0 0.0
2014-Aug-21 01:33N 41°00' W 072°11'0 0.0
2014-Aug-21 00:33N 41°00' W 072°11'0 0.0
2014-Aug-20 23:30N 41°00' W 072°11'0 0.0
2014-Aug-20 22:33N 41°00' W 072°11'0 0.0
2014-Aug-20 21:30N 41°00' W 072°11'0 0.0
2014-Aug-20 20:33N 41°00' W 072°11'0 0.0
2014-Aug-20 19:33N 41°00' W 072°11'0 0.0
2014-Aug-20 18:30N 41°00' W 072°11'0 0.0
2014-Aug-20 17:30N 41°00' W 072°11'0 0.0
2014-Aug-20 16:33N 41°00' W 072°11'0 0.0
2014-Aug-20 15:33N 41°00' W 072°11'0 0.0
2014-Aug-20 14:33N 41°00' W 072°11'0 0.0
2014-Aug-20 13:30N 41°00' W 072°11'0 0.0
2014-Aug-20 12:30N 41°00' W 072°11'0 0.0
2014-Aug-20 11:33N 41°00' W 072°11'0 0.0
2014-Aug-20 10:30N 41°00' W 072°11'0 0.0
2014-Aug-20 09:33N 41°00' W 072°11'0 0.0
2014-Aug-20 08:33N 41°00' W 072°11'0 0.0
2014-Aug-20 07:30N 41°00' W 072°11'0 0.0
2014-Aug-20 06:33N 41°00' W 072°11'0 0.0
2014-Aug-20 05:33N 41°00' W 072°11'0 0.0
2014-Aug-20 04:33N 41°00' W 072°11'0 0.0
2014-Aug-20 03:33N 41°00' W 072°11'0 0.0
2014-Aug-20 02:33N 41°00' W 072°11'0 0.0
2014-Aug-20 01:33N 41°00' W 072°11'0 0.0
2014-Aug-20 00:30N 41°00' W 072°11'0 0.0
2014-Aug-19 23:33N 41°00' W 072°11'0 0.0
2014-Aug-19 22:33N 41°00' W 072°11'0 0.0
2014-Aug-19 21:33N 41°00' W 072°11'0 0.0
2014-Aug-19 20:33N 41°00' W 072°11'0 0.0
2014-Aug-19 19:33N 41°00' W 072°11'0 0.0
2014-Aug-19 18:33N 41°00' W 072°11'0 0.0
2014-Aug-19 17:33N 41°00' W 072°11'0 0.0
2014-Aug-19 16:33N 41°00' W 072°11'0 0.0
2014-Aug-19 15:33N 41°00' W 072°11'0 0.0
2014-Aug-19 14:24N 41°00' W 072°11'0 0.0
2014-Aug-19 13:33N 41°00' W 072°11'0 0.0
2014-Aug-19 12:30N 41°00' W 072°11'0 0.0
2014-Aug-19 11:30N 41°00' W 072°11'0 0.0
2014-Aug-19 10:30N 41°00' W 072°11'0 0.0
2014-Aug-19 09:33N 41°00' W 072°11'0 0.0
2014-Aug-19 08:33N 41°00' W 072°11'0 0.0
2014-Aug-19 07:33N 41°00' W 072°11'0 0.0
2014-Aug-19 06:33N 41°00' W 072°11'0 0.0
2014-Aug-19 05:33N 41°00' W 072°11'0 0.0
2014-Aug-19 04:33N 41°00' W 072°11'0 0.0
2014-Aug-19 03:33N 41°00' W 072°11'0 0.0
2014-Aug-19 02:33N 41°00' W 072°11'0 0.0
2014-Aug-19 01:33N 41°00' W 072°11'0 0.0
2014-Aug-19 00:33N 41°00' W 072°11'0 0.0
2014-Aug-18 23:33N 41°00' W 072°11'0 0.0
2014-Aug-18 22:33N 41°00' W 072°11'3 2.6
2014-Aug-18 21:33N 41°03' W 072°12'8 7.5
2014-Aug-18 20:33N 41°08' W 072°19'0 0.0
2014-Aug-18 19:33N 41°08' W 072°19'0 0.0
2014-Aug-18 18:33N 41°08' W 072°19'0 0.0
2014-Aug-18 17:33N 41°08' W 072°19'7 6.6
2014-Aug-18 16:33N 41°03' W 072°13'1 1.2
2014-Aug-18 15:31N 41°02' W 072°12'0 0.0
2014-Aug-18 14:31N 41°02' W 072°12'0 0.0
2014-Aug-18 13:31N 41°02' W 072°12'0 0.0
2014-Aug-18 12:31N 41°02' W 072°12'0 0.0
2014-Aug-18 11:31N 41°02' W 072°12'2 2.3
2014-Aug-18 10:33N 41°00' W 072°11'0 0.0
2014-Aug-18 09:33N 41°00' W 072°11'0 0.0
2014-Aug-18 08:33N 41°00' W 072°11'0 0.0
2014-Aug-18 07:33N 41°00' W 072°11'0 0.0
2014-Aug-18 06:33N 41°00' W 072°11'0 0.0
2014-Aug-18 05:33N 41°00' W 072°11'0 0.0
2014-Aug-18 04:33N 41°00' W 072°11'0 0.0
2014-Aug-18 03:33N 41°00' W 072°11'0 0.0
2014-Aug-18 02:33N 41°00' W 072°11'0 0.0
2014-Aug-18 01:33N 41°00' W 072°11'0 0.0
2014-Aug-18 00:33N 41°00' W 072°11'0 0.0
2014-Aug-17 18:33N 41°00' W 072°11'0 0.0
2014-Aug-17 17:33N 41°00' W 072°11'0 0.0
2014-Aug-17 16:33N 41°00' W 072°11'0 0.0
2014-Aug-17 15:33N 41°00' W 072°11'0 0.0
2014-Aug-17 14:33N 41°00' W 072°11'0 0.0
2014-Aug-17 13:33N 41°00' W 072°11'0 0.0
2014-Aug-17 12:33N 41°00' W 072°11'0 0.0
2014-Aug-17 11:33N 41°00' W 072°11'0 0.0
2014-Aug-17 10:33N 41°00' W 072°11'0 0.0
2014-Aug-17 09:33N 41°00' W 072°11'0 0.0
2014-Aug-17 08:33N 41°00' W 072°11'0 0.0
2014-Aug-17 07:33N 41°00' W 072°11'0 0.0
2014-Aug-17 06:33N 41°00' W 072°11'0 0.0
2014-Aug-17 05:33N 41°00' W 072°11'0 0.0
2014-Aug-17 04:33N 41°00' W 072°11'0 0.0
2014-Aug-17 03:33N 41°00' W 072°11'0 0.0
2014-Aug-17 02:33N 41°00' W 072°11'0 0.0
2014-Aug-17 01:33N 41°00' W 072°11'0 0.0
2014-Aug-17 00:33N 41°00' W 072°11'0 0.0
2014-Aug-16 23:33N 41°00' W 072°11'0 0.0
2014-Aug-16 22:33N 41°00' W 072°11'0 0.0
2014-Aug-16 21:33N 41°00' W 072°11'0 0.0
2014-Aug-16 20:33N 41°00' W 072°11'0 0.0
2014-Aug-16 19:33N 41°00' W 072°11'0 0.0
2014-Aug-16 18:33N 41°00' W 072°11'0 0.0
2014-Aug-16 17:33N 41°00' W 072°11'0 0.0
2014-Aug-16 16:33N 41°00' W 072°11'0 0.0
2014-Aug-16 15:33N 41°00' W 072°11'0 0.0
2014-Aug-16 14:33N 41°00' W 072°11'0 0.0
2014-Aug-16 13:33N 41°00' W 072°11'0 0.0
2014-Aug-16 12:33N 41°00' W 072°11'0 0.0
2014-Aug-16 11:33N 41°00' W 072°11'0 0.0
2014-Aug-16 10:33N 41°00' W 072°11'0 0.0
2014-Aug-16 09:33N 41°00' W 072°11'0 0.0
2014-Aug-16 08:33N 41°00' W 072°11'0 0.0
2014-Aug-16 07:33N 41°00' W 072°11'0 0.0
2014-Aug-16 06:33N 41°00' W 072°11'0 0.0
2014-Aug-16 05:33N 41°00' W 072°11'0 0.0
2014-Aug-16 04:33N 41°00' W 072°11'0 0.0
2014-Aug-16 03:30N 41°00' W 072°11'0 0.0
2014-Aug-16 02:33N 41°00' W 072°11'0 0.0
2014-Aug-16 01:33N 41°00' W 072°11'0 0.0
2014-Aug-16 00:33N 41°00' W 072°11'0 0.0
2014-Aug-15 23:30N 41°00' W 072°11'0 0.0
2014-Aug-15 22:33N 41°00' W 072°11'0 0.0
2014-Aug-15 21:33N 41°00' W 072°11'0 0.0
2014-Aug-15 20:33N 41°00' W 072°11'0 0.0
2014-Aug-15 19:33N 41°00' W 072°11'0 0.0
2014-Aug-15 18:33N 41°00' W 072°11'0 0.0
2014-Aug-15 17:33N 41°00' W 072°11'0 0.0
2014-Aug-15 16:33N 41°00' W 072°11'0 0.0
2014-Aug-15 15:33N 41°00' W 072°11'0 0.0
2014-Aug-15 14:33N 41°00' W 072°11'0 0.0
2014-Aug-15 13:33N 41°00' W 072°11'0 0.0
2014-Aug-15 12:33N 41°00' W 072°11'0 0.0
2014-Aug-15 11:30N 41°00' W 072°11'0 0.0
2014-Aug-15 10:33N 41°00' W 072°11'0 0.0
2014-Aug-15 09:33N 41°00' W 072°11'0 0.0
2014-Aug-15 08:33N 41°00' W 072°11'0 0.0
2014-Aug-15 07:33N 41°00' W 072°11'0 0.0
2014-Aug-15 06:33N 41°00' W 072°11'0 0.0
2014-Aug-15 05:30N 41°00' W 072°11'0 0.0
2014-Aug-15 04:33N 41°00' W 072°11'0 0.0
2014-Aug-15 03:33N 41°00' W 072°11'0 0.0
2014-Aug-15 02:33N 41°00' W 072°11'0 0.0
2014-Aug-15 01:33N 41°00' W 072°11'0 0.0
2014-Aug-15 00:33N 41°00' W 072°11'0 0.0
2014-Aug-14 23:33N 41°00' W 072°11'0 0.0
2014-Aug-14 22:33N 41°00' W 072°11'0 0.0
2014-Aug-14 21:33N 41°00' W 072°11'0 0.0
2014-Aug-14 20:33N 41°00' W 072°11'0 0.0
2014-Aug-14 19:30N 41°00' W 072°11'0 0.0
2014-Aug-14 18:30N 41°00' W 072°11'0 0.0
2014-Aug-14 17:33N 41°00' W 072°11'0 0.0
2014-Aug-14 16:33N 41°00' W 072°11'0 0.0
2014-Aug-14 15:33N 41°00' W 072°11'0 0.0
2014-Aug-14 14:33N 41°00' W 072°11'0 0.0
2014-Aug-14 13:33N 41°00' W 072°11'0 0.0
2014-Aug-14 12:33N 41°00' W 072°11'0 0.0
2014-Aug-14 11:33N 41°00' W 072°11'0 0.0
2014-Aug-14 10:33N 41°00' W 072°11'0 0.0
2014-Aug-14 09:33N 41°00' W 072°11'0 0.0
2014-Aug-14 08:33N 41°00' W 072°11'0 0.0
2014-Aug-14 07:33N 41°00' W 072°11'0 0.0
2014-Aug-14 06:33N 41°00' W 072°11'0 0.0
2014-Aug-14 05:33N 41°00' W 072°11'0 0.0
2014-Aug-14 04:27N 41°00' W 072°11'0 0.0
2014-Aug-14 03:33N 41°00' W 072°11'0 0.0
2014-Aug-14 02:30N 41°00' W 072°11'0 0.0
2014-Aug-14 01:33N 41°00' W 072°11'0 0.0
2014-Aug-14 00:33N 41°00' W 072°11'0 0.0
2014-Aug-13 23:33N 41°00' W 072°11'0 0.0
2014-Aug-13 22:33N 41°00' W 072°11'0 0.0
2014-Aug-13 21:33N 41°00' W 072°11'0 0.0
2014-Aug-13 20:33N 41°00' W 072°11'0 0.0
2014-Aug-13 19:33N 41°00' W 072°11'0 0.0
2014-Aug-13 18:33N 41°00' W 072°11'0 0.0
2014-Aug-13 17:33N 41°00' W 072°11'0 0.0
2014-Aug-13 16:33N 41°00' W 072°11'0 0.0
2014-Aug-13 15:33N 41°00' W 072°11'0 0.0
2014-Aug-13 14:33N 41°00' W 072°11'0 0.0
2014-Aug-13 13:33N 41°00' W 072°11'0 0.0
2014-Aug-13 12:33N 41°00' W 072°11'0 0.0
2014-Aug-13 11:33N 41°00' W 072°11'0 0.0
2014-Aug-13 10:33N 41°00' W 072°11'0 0.0
2014-Aug-13 09:33N 41°00' W 072°11'0 0.0
2014-Aug-13 08:33N 41°00' W 072°11'0 0.0
2014-Aug-13 07:33N 41°00' W 072°11'0 0.0
2014-Aug-13 06:33N 41°00' W 072°11'0 0.0
2014-Aug-13 05:33N 41°00' W 072°11'0 0.0
2014-Aug-13 04:33N 41°00' W 072°11'0 0.0
2014-Aug-13 03:33N 41°00' W 072°11'0 0.0
2014-Aug-13 02:33N 41°00' W 072°11'0 0.0
2014-Aug-13 01:33N 41°00' W 072°11'0 0.0
2014-Aug-13 00:33N 41°00' W 072°11'0 0.0
2014-Aug-12 23:33N 41°00' W 072°11'0 0.0
2014-Aug-12 22:33N 41°00' W 072°11'0 0.0
2014-Aug-12 21:33N 41°00' W 072°11'0 0.0
2014-Aug-12 20:30N 41°00' W 072°11'0 0.0
2014-Aug-12 19:33N 41°00' W 072°11'0 0.0
2014-Aug-12 18:33N 41°00' W 072°11'0 0.0
2014-Aug-12 17:33N 41°00' W 072°11'0 0.0
2014-Aug-12 16:33N 41°00' W 072°11'0 0.0
2014-Aug-12 15:33N 41°00' W 072°11'0 0.0
2014-Aug-12 14:33N 41°00' W 072°11'0 0.0
2014-Aug-12 13:33N 41°00' W 072°11'0 0.0
2014-Aug-12 12:33N 41°00' W 072°11'0 0.0
2014-Aug-12 11:33N 41°00' W 072°11'0 0.0
2014-Aug-12 10:33N 41°00' W 072°11'0 0.0
2014-Aug-12 09:33N 41°00' W 072°11'0 0.0
2014-Aug-12 08:30N 41°00' W 072°11'0 0.0
2014-Aug-12 07:33N 41°00' W 072°11'0 0.0
2014-Aug-12 06:33N 41°00' W 072°11'0 0.0
2014-Aug-12 05:33N 41°00' W 072°11'0 0.0
2014-Aug-12 04:33N 41°00' W 072°11'0 0.0
2014-Aug-12 03:33N 41°00' W 072°11'0 0.0
2014-Aug-12 02:33N 41°00' W 072°11'0 0.0
2014-Aug-12 01:33N 41°00' W 072°11'0 0.0
2014-Aug-12 00:33N 41°00' W 072°11'0 0.0
2014-Aug-11 23:33N 41°00' W 072°11'0 0.0
2014-Aug-11 22:33N 41°00' W 072°11'0 0.0
2014-Aug-11 21:33N 41°00' W 072°11'0 0.0
2014-Aug-11 20:30N 41°00' W 072°11'0 0.0
2014-Aug-11 19:33N 41°00' W 072°11'0 0.0
2014-Aug-11 18:21N 41°00' W 072°11'0 0.0
2014-Aug-11 17:30N 41°00' W 072°11'0 0.0
2014-Aug-11 16:30N 41°00' W 072°11'  
Track history (hours):
 
Tides and Currents Weather Stations Pressure Air Temp Water Temp Dewpoint Dewpoint Depression Visibility Wind Speed Wind Dir Waves Ship Positions

Ocean Drive

Last reported at 2014-Aug-21 15:33 UTC. Time now 2014-Aug-21 16:00 UTC.
Position N 41°00' W 072°11'.

; draft 2 m.

MMSI: 319901000.

Date/timePositionNaut miles runAvg speedWind from/ knotsBaromVisibWave heightAir tempDewpointWater temp
2014-Aug-21 15:33N 41°00' W 072°11'0 0.0
2014-Aug-21 14:33N 41°00' W 072°11'0 0.0
2014-Aug-21 13:33N 41°00' W 072°11'0 0.0
2014-Aug-21 12:30N 41°00' W 072°11'0 0.0
2014-Aug-21 11:30N 41°00' W 072°11'0 0.0
2014-Aug-21 10:33N 41°00' W 072°11'0 0.0
2014-Aug-21 09:33N 41°00' W 072°11'0 0.0
2014-Aug-21 08:33N 41°00' W 072°11'0 0.0
2014-Aug-21 07:30N 41°00' W 072°11'0 0.0
2014-Aug-21 06:33N 41°00' W 072°11'0 0.0
2014-Aug-21 05:33N 41°00' W 072°11'0 0.0
2014-Aug-21 04:33N 41°00' W 072°11'0 0.0
2014-Aug-21 03:30N 41°00' W 072°11'0 0.0
2014-Aug-21 02:33N 41°00' W 072°11'0 0.0
2014-Aug-21 01:33N 41°00' W 072°11'0 0.0
2014-Aug-21 00:33N 41°00' W 072°11'0 0.0
2014-Aug-20 23:30N 41°00' W 072°11'0 0.0
2014-Aug-20 22:33N 41°00' W 072°11'0 0.0
2014-Aug-20 21:30N 41°00' W 072°11'0 0.0
2014-Aug-20 20:33N 41°00' W 072°11'0 0.0
2014-Aug-20 19:33N 41°00' W 072°11'0 0.0
2014-Aug-20 18:30N 41°00' W 072°11'0 0.0
2014-Aug-20 17:30N 41°00' W 072°11'0 0.0
2014-Aug-20 16:33N 41°00' W 072°11'0 0.0
2014-Aug-20 15:33N 41°00' W 072°11'0 0.0
2014-Aug-20 14:33N 41°00' W 072°11'0 0.0
2014-Aug-20 13:30N 41°00' W 072°11'0 0.0
2014-Aug-20 12:30N 41°00' W 072°11'0 0.0
2014-Aug-20 11:33N 41°00' W 072°11'0 0.0
2014-Aug-20 10:30N 41°00' W 072°11'0 0.0
2014-Aug-20 09:33N 41°00' W 072°11'0 0.0
2014-Aug-20 08:33N 41°00' W 072°11'0 0.0
2014-Aug-20 07:30N 41°00' W 072°11'0 0.0
2014-Aug-20 06:33N 41°00' W 072°11'0 0.0
2014-Aug-20 05:33N 41°00' W 072°11'0 0.0
2014-Aug-20 04:33N 41°00' W 072°11'0 0.0
2014-Aug-20 03:33N 41°00' W 072°11'0 0.0
2014-Aug-20 02:33N 41°00' W 072°11'0 0.0
2014-Aug-20 01:33N 41°00' W 072°11'0 0.0
2014-Aug-20 00:30N 41°00' W 072°11'0 0.0
2014-Aug-19 23:33N 41°00' W 072°11'0 0.0
2014-Aug-19 22:33N 41°00' W 072°11'0 0.0
2014-Aug-19 21:33N 41°00' W 072°11'0 0.0
2014-Aug-19 20:33N 41°00' W 072°11'0 0.0
2014-Aug-19 19:33N 41°00' W 072°11'0 0.0
2014-Aug-19 18:33N 41°00' W 072°11'0 0.0
2014-Aug-19 17:33N 41°00' W 072°11'0 0.0
2014-Aug-19 16:33N 41°00' W 072°11'0 0.0
2014-Aug-19 15:33N 41°00' W 072°11'0 0.0
2014-Aug-19 14:24N 41°00' W 072°11'0 0.0
2014-Aug-19 13:33N 41°00' W 072°11'0 0.0
2014-Aug-19 12:30N 41°00' W 072°11'0 0.0
2014-Aug-19 11:30N 41°00' W 072°11'0 0.0
2014-Aug-19 10:30N 41°00' W 072°11'0 0.0
2014-Aug-19 09:33N 41°00' W 072°11'0 0.0
2014-Aug-19 08:33N 41°00' W 072°11'0 0.0
2014-Aug-19 07:33N 41°00' W 072°11'0 0.0
2014-Aug-19 06:33N 41°00' W 072°11'0 0.0
2014-Aug-19 05:33N 41°00' W 072°11'0 0.0
2014-Aug-19 04:33N 41°00' W 072°11'0 0.0
2014-Aug-19 03:33N 41°00' W 072°11'0 0.0
2014-Aug-19 02:33N 41°00' W 072°11'0 0.0
2014-Aug-19 01:33N 41°00' W 072°11'0 0.0
2014-Aug-19 00:33N 41°00' W 072°11'0 0.0
2014-Aug-18 23:33N 41°00' W 072°11'0 0.0
2014-Aug-18 22:33N 41°00' W 072°11'3 2.6
2014-Aug-18 21:33N 41°03' W 072°12'8 7.5
2014-Aug-18 20:33N 41°08' W 072°19'0 0.0
2014-Aug-18 19:33N 41°08' W 072°19'0 0.0
2014-Aug-18 18:33N 41°08' W 072°19'0 0.0
2014-Aug-18 17:33N 41°08' W 072°19'7 6.6
2014-Aug-18 16:33N 41°03' W 072°13'1 1.2
2014-Aug-18 15:31N 41°02' W 072°12'0 0.0
2014-Aug-18 14:31N 41°02' W 072°12'0 0.0
2014-Aug-18 13:31N 41°02' W 072°12'0 0.0
2014-Aug-18 12:31N 41°02' W 072°12'0 0.0
2014-Aug-18 11:31N 41°02' W 072°12'2 2.3
2014-Aug-18 10:33N 41°00' W 072°11'0 0.0
2014-Aug-18 09:33N 41°00' W 072°11'0 0.0
2014-Aug-18 08:33N 41°00' W 072°11'0 0.0
2014-Aug-18 07:33N 41°00' W 072°11'0 0.0
2014-Aug-18 06:33N 41°00' W 072°11'0 0.0
2014-Aug-18 05:33N 41°00' W 072°11'0 0.0
2014-Aug-18 04:33N 41°00' W 072°11'0 0.0
2014-Aug-18 03:33N 41°00' W 072°11'0 0.0
2014-Aug-18 02:33N 41°00' W 072°11'0 0.0
2014-Aug-18 01:33N 41°00' W 072°11'0 0.0
2014-Aug-18 00:33N 41°00' W 072°11'0 0.0
2014-Aug-17 18:33N 41°00' W 072°11'0 0.0
2014-Aug-17 17:33N 41°00' W 072°11'0 0.0
2014-Aug-17 16:33N 41°00' W 072°11'0 0.0
2014-Aug-17 15:33N 41°00' W 072°11'0 0.0
2014-Aug-17 14:33N 41°00' W 072°11'0 0.0
2014-Aug-17 13:33N 41°00' W 072°11'0 0.0
2014-Aug-17 12:33N 41°00' W 072°11'0 0.0
2014-Aug-17 11:33N 41°00' W 072°11'0 0.0
2014-Aug-17 10:33N 41°00' W 072°11'0 0.0
2014-Aug-17 09:33N 41°00' W 072°11'0 0.0
2014-Aug-17 08:33N 41°00' W 072°11'0 0.0
2014-Aug-17 07:33N 41°00' W 072°11'0 0.0
2014-Aug-17 06:33N 41°00' W 072°11'0 0.0
2014-Aug-17 05:33N 41°00' W 072°11'0 0.0
2014-Aug-17 04:33N 41°00' W 072°11'0 0.0
2014-Aug-17 03:33N 41°00' W 072°11'0 0.0
2014-Aug-17 02:33N 41°00' W 072°11'0 0.0
2014-Aug-17 01:33N 41°00' W 072°11'0 0.0
2014-Aug-17 00:33N 41°00' W 072°11'0 0.0
2014-Aug-16 23:33N 41°00' W 072°11'0 0.0
2014-Aug-16 22:33N 41°00' W 072°11'0 0.0
2014-Aug-16 21:33N 41°00' W 072°11'0 0.0
2014-Aug-16 20:33N 41°00' W 072°11'0 0.0
2014-Aug-16 19:33N 41°00' W 072°11'0 0.0
2014-Aug-16 18:33N 41°00' W 072°11'0 0.0
2014-Aug-16 17:33N 41°00' W 072°11'0 0.0
2014-Aug-16 16:33N 41°00' W 072°11'0 0.0
2014-Aug-16 15:33N 41°00' W 072°11'0 0.0
2014-Aug-16 14:33N 41°00' W 072°11'0 0.0
2014-Aug-16 13:33N 41°00' W 072°11'0 0.0
2014-Aug-16 12:33N 41°00' W 072°11'0 0.0
2014-Aug-16 11:33N 41°00' W 072°11'0 0.0
2014-Aug-16 10:33N 41°00' W 072°11'0 0.0
2014-Aug-16 09:33N 41°00' W 072°11'0 0.0
2014-Aug-16 08:33N 41°00' W 072°11'0 0.0
2014-Aug-16 07:33N 41°00' W 072°11'0 0.0
2014-Aug-16 06:33N 41°00' W 072°11'0 0.0
2014-Aug-16 05:33N 41°00' W 072°11'0 0.0
2014-Aug-16 04:33N 41°00' W 072°11'0 0.0
2014-Aug-16 03:30N 41°00' W 072°11'0 0.0
2014-Aug-16 02:33N 41°00' W 072°11'0 0.0
2014-Aug-16 01:33N 41°00' W 072°11'0 0.0
2014-Aug-16 00:33N 41°00' W 072°11'0 0.0
2014-Aug-15 23:30N 41°00' W 072°11'0 0.0
2014-Aug-15 22:33N 41°00' W 072°11'0 0.0
2014-Aug-15 21:33N 41°00' W 072°11'0 0.0
2014-Aug-15 20:33N 41°00' W 072°11'0 0.0
2014-Aug-15 19:33N 41°00' W 072°11'0 0.0
2014-Aug-15 18:33N 41°00' W 072°11'0 0.0
2014-Aug-15 17:33N 41°00' W 072°11'0 0.0
2014-Aug-15 16:33N 41°00' W 072°11'0 0.0
2014-Aug-15 15:33N 41°00' W 072°11'0 0.0
2014-Aug-15 14:33N 41°00' W 072°11'0 0.0
2014-Aug-15 13:33N 41°00' W 072°11'0 0.0
2014-Aug-15 12:33N 41°00' W 072°11'0 0.0
2014-Aug-15 11:30N 41°00' W 072°11'0 0.0
2014-Aug-15 10:33N 41°00' W 072°11'0 0.0
2014-Aug-15 09:33N 41°00' W 072°11'0 0.0
2014-Aug-15 08:33N 41°00' W 072°11'0 0.0
2014-Aug-15 07:33N 41°00' W 072°11'0 0.0
2014-Aug-15 06:33N 41°00' W 072°11'0 0.0
2014-Aug-15 05:30N 41°00' W 072°11'0 0.0
2014-Aug-15 04:33N 41°00' W 072°11'0 0.0
2014-Aug-15 03:33N 41°00' W 072°11'0 0.0
2014-Aug-15 02:33N 41°00' W 072°11'0 0.0
2014-Aug-15 01:33N 41°00' W 072°11'0 0.0
2014-Aug-15 00:33N 41°00' W 072°11'0 0.0
2014-Aug-14 23:33N 41°00' W 072°11'0 0.0
2014-Aug-14 22:33N 41°00' W 072°11'0 0.0
2014-Aug-14 21:33N 41°00' W 072°11'0 0.0
2014-Aug-14 20:33N 41°00' W 072°11'0 0.0
2014-Aug-14 19:30N 41°00' W 072°11'0 0.0
2014-Aug-14 18:30N 41°00' W 072°11'0 0.0
2014-Aug-14 17:33N 41°00' W 072°11'0 0.0
2014-Aug-14 16:33N 41°00' W 072°11'0 0.0
2014-Aug-14 15:33N 41°00' W 072°11'0 0.0
2014-Aug-14 14:33N 41°00' W 072°11'0 0.0
2014-Aug-14 13:33N 41°00' W 072°11'0 0.0
2014-Aug-14 12:33N 41°00' W 072°11'0 0.0
2014-Aug-14 11:33N 41°00' W 072°11'0 0.0
2014-Aug-14 10:33N 41°00' W 072°11'0 0.0
2014-Aug-14 09:33N 41°00' W 072°11'0 0.0
2014-Aug-14 08:33N 41°00' W 072°11'0 0.0
2014-Aug-14 07:33N 41°00' W 072°11'0 0.0
2014-Aug-14 06:33N 41°00' W 072°11'0 0.0
2014-Aug-14 05:33N 41°00' W 072°11'0 0.0
2014-Aug-14 04:27N 41°00' W 072°11'0 0.0
2014-Aug-14 03:33N 41°00' W 072°11'0 0.0
2014-Aug-14 02:30N 41°00' W 072°11'0 0.0
2014-Aug-14 01:33N 41°00' W 072°11'0 0.0
2014-Aug-14 00:33N 41°00' W 072°11'0 0.0
2014-Aug-13 23:33N 41°00' W 072°11'0 0.0
2014-Aug-13 22:33N 41°00' W 072°11'0 0.0
2014-Aug-13 21:33N 41°00' W 072°11'0 0.0
2014-Aug-13 20:33N 41°00' W 072°11'0 0.0
2014-Aug-13 19:33N 41°00' W 072°11'0 0.0
2014-Aug-13 18:33N 41°00' W 072°11'0 0.0
2014-Aug-13 17:33N 41°00' W 072°11'0 0.0
2014-Aug-13 16:33N 41°00' W 072°11'0 0.0
2014-Aug-13 15:33N 41°00' W 072°11'0 0.0
2014-Aug-13 14:33N 41°00' W 072°11'0 0.0
2014-Aug-13 13:33N 41°00' W 072°11'0 0.0
2014-Aug-13 12:33N 41°00' W 072°11'0 0.0
2014-Aug-13 11:33N 41°00' W 072°11'0 0.0
2014-Aug-13 10:33N 41°00' W 072°11'0 0.0
2014-Aug-13 09:33N 41°00' W 072°11'0 0.0
2014-Aug-13 08:33N 41°00' W 072°11'0 0.0
2014-Aug-13 07:33N 41°00' W 072°11'0 0.0
2014-Aug-13 06:33N 41°00' W 072°11'0 0.0
2014-Aug-13 05:33N 41°00' W 072°11'0 0.0
2014-Aug-13 04:33N 41°00' W 072°11'0 0.0
2014-Aug-13 03:33N 41°00' W 072°11'0 0.0
2014-Aug-13 02:33N 41°00' W 072°11'0 0.0
2014-Aug-13 01:33N 41°00' W 072°11'0 0.0
2014-Aug-13 00:33N 41°00' W 072°11'0 0.0
2014-Aug-12 23:33N 41°00' W 072°11'0 0.0
2014-Aug-12 22:33N 41°00' W 072°11'0 0.0
2014-Aug-12 21:33N 41°00' W 072°11'0 0.0
2014-Aug-12 20:30N 41°00' W 072°11'0 0.0
2014-Aug-12 19:33N 41°00' W 072°11'0 0.0
2014-Aug-12 18:33N 41°00' W 072°11'0 0.0
2014-Aug-12 17:33N 41°00' W 072°11'0 0.0
2014-Aug-12 16:33N 41°00' W 072°11'0 0.0
2014-Aug-12 15:33N 41°00' W 072°11'0 0.0
2014-Aug-12 14:33N 41°00' W 072°11'0 0.0
2014-Aug-12 13:33N 41°00' W 072°11'0 0.0
2014-Aug-12 12:33N 41°00' W 072°11'0 0.0
2014-Aug-12 11:33N 41°00' W 072°11'0 0.0
2014-Aug-12 10:33N 41°00' W 072°11'0 0.0
2014-Aug-12 09:33N 41°00' W 072°11'0 0.0
2014-Aug-12 08:30N 41°00' W 072°11'0 0.0
2014-Aug-12 07:33N 41°00' W 072°11'0 0.0
2014-Aug-12 06:33N 41°00' W 072°11'0 0.0
2014-Aug-12 05:33N 41°00' W 072°11'0 0.0
2014-Aug-12 04:33N 41°00' W 072°11'0 0.0
2014-Aug-12 03:33N 41°00' W 072°11'0 0.0
2014-Aug-12 02:33N 41°00' W 072°11'0 0.0
2014-Aug-12 01:33N 41°00' W 072°11'0 0.0
2014-Aug-12 00:33N 41°00' W 072°11'0 0.0
2014-Aug-11 23:33N 41°00' W 072°11'0 0.0
2014-Aug-11 22:33N 41°00' W 072°11'0 0.0
2014-Aug-11 21:33N 41°00' W 072°11'0 0.0
2014-Aug-11 20:30N 41°00' W 072°11'0 0.0
2014-Aug-11 19:33N 41°00' W 072°11'0 0.0
2014-Aug-11 18:21N 41°00' W 072°11'0 0.0
2014-Aug-11 17:30N 41°00' W 072°11'0 0.0
2014-Aug-11 16:30N 41°00' W 072°11'  

Dump ship's entire track history